Time;durP1;ratioP1;P1;durP2;ratioP2;P2;SDS_P1;SDS_P2;PMS_P1;PMS_P2;Temp;Humidity;BMP_temperature;BMP_pressure;BME280_temperature;BME280_humidity;BME280_pressure;Samples;Min_cycle;Max_cycle;Signal;HPM_P1;HPM_P2
2022/01/15 00:01:41;;;;;;;15.38;9.35;;;;;;;5.95;70.94;101959.84;5079648;28;20047;-85
2022/01/15 00:04:08;;;;;;;14.93;10.15;;;;;;;5.97;70.71;101971.50;5078905;28;20063;-85
2022/01/15 00:06:36;;;;;;;18.05;10.98;;;;;;;5.93;70.63;101975.00;5079459;28;20048;-85
2022/01/15 00:09:04;;;;;;;13.95;8.93;;;;;;;5.97;70.82;101981.75;5078891;28;20063;-85
2022/01/15 00:11:32;;;;;;;16.02;10.18;;;;;;;6.00;70.68;101971.00;5079248;28;20063;-85
2022/01/15 00:14:12;;;;;;;12.40;9.20;;;;;;;6.03;70.44;101962.22;5078936;28;20056;-85
2022/01/15 00:16:48;;;;;;;;;;;;;;;5.96;69.96;101960.69;5078600;28;20049;-85
2022/01/15 00:19:21;;;;;;;12.75;9.30;;;;;;;5.96;70.40;101955.16;5077829;28;20304;-86
2022/01/15 00:21:48;;;;;;;15.73;10.57;;;;;;;5.96;70.50;101947.69;5077834;28;20040;-86
2022/01/15 00:24:16;;;;;;;18.00;11.00;;;;;;;6.00;70.80;101942.50;5078182;28;20055;-85
2022/01/15 00:26:43;;;;;;;17.25;11.82;;;;;;;6.01;70.88;101933.97;5079171;28;20063;-86
2022/01/15 00:29:10;;;;;;;20.00;12.73;;;;;;;6.02;70.69;101940.34;5085635;28;20060;-85
2022/01/15 00:31:38;;;;;;;16.80;12.57;;;;;;;6.05;70.76;101935.16;5100225;28;20377;-85
2022/01/15 00:34:06;;;;;;;17.55;11.90;;;;;;;6.08;70.75;101936.59;5095445;28;20044;-85
2022/01/15 00:36:37;;;;;;;19.92;12.05;;;;;;;6.04;70.51;101932.63;5099423;28;20055;-85
2022/01/15 00:39:04;;;;;;;21.70;11.95;;;;;;;6.08;70.35;101918.06;5099644;28;20488;-84
2022/01/15 00:41:32;;;;;;;16.17;11.05;;;;;;;6.04;71.11;101910.50;5099776;28;20048;-85
2022/01/15 00:43:59;;;;;;;17.98;12.32;;;;;;;6.01;70.50;101917.38;5099490;28;20056;-85
2022/01/15 00:46:29;;;;;;;20.67;12.63;;;;;;;5.98;70.73;101923.41;5099338;28;20052;-85
2022/01/15 00:48:56;;;;;;;15.15;10.63;;;;;;;6.00;70.70;101918.44;5074362;28;20051;-84
2022/01/15 00:51:25;;;;;;;16.77;11.45;;;;;;;6.06;70.08;101914.69;5077514;28;20063;-84
2022/01/15 00:53:53;;;;;;;17.08;11.48;;;;;;;6.01;70.56;101917.38;5077148;28;20049;-84
2022/01/15 00:56:23;;;;;;;22.35;13.82;;;;;;;6.02;70.65;101907.97;5079700;28;20059;-85
2022/01/15 00:58:52;;;;;;;16.58;10.95;;;;;;;6.05;70.04;101906.66;5078935;28;20059;-85
2022/01/15 01:01:20;;;;;;;20.23;12.25;;;;;;;6.02;70.71;101896.91;5078503;28;20490;-85
2022/01/15 01:03:48;;;;;;;19.00;12.13;;;;;;;5.94;70.55;101889.00;5085122;28;20051;-84
2022/01/15 01:06:19;;;;;;;15.25;11.52;;;;;;;5.87;70.67;101908.50;5098186;28;20063;-83
2022/01/15 01:08:48;;;;;;;15.43;11.02;;;;;;;5.96;71.02;101908.13;5098303;28;20048;-84
2022/01/15 01:11:29;;;;;;;16.38;11.18;;;;;;;5.96;70.41;101897.06;5097409;28;20380;-85
2022/01/15 01:25:12;;;;;;;21.55;12.73;;;;;;;6.03;71.64;101900.53;5054065;28;20497;-83
2022/01/15 01:27:47;;;;;;;15.43;11.05;;;;;;;6.05;71.16;101890.91;5079193;28;20405;-84
2022/01/15 01:30:20;;;;;;;15.70;10.95;;;;;;;6.07;70.94;101885.13;5078584;28;20117;-84
2022/01/15 01:32:53;;;;;;;18.42;12.43;;;;;;;6.10;70.93;101888.22;5078175;28;20057;-85
2022/01/15 01:35:33;;;;;;;16.95;11.48;;;;;;;6.13;70.89;101884.09;5078126;28;20063;-84
2022/01/15 01:38:10;;;;;;;;;;;;;;;6.11;70.90;101883.53;5079384;28;20045;-84
2022/01/15 01:40:41;;;;;;;15.38;10.43;;;;;;;6.12;70.86;101879.69;5078572;28;20300;-84
2022/01/15 01:43:39;;;;;;;17.17;11.80;;;;;;;6.09;71.11;101883.78;5077470;28;20059;-84
2022/01/15 01:46:18;;;;;;;17.20;11.48;;;;;;;6.10;71.05;101877.16;5077784;28;20053;-84
2022/01/15 01:48:47;;;;;;;15.52;10.73;;;;;;;6.04;71.43;101864.31;5076634;28;20402;-83
2022/01/15 01:51:25;;;;;;;17.83;11.43;;;;;;;6.14;70.89;101871.13;5077678;28;20060;-84
2022/01/15 01:53:56;;;;;;;16.08;11.70;;;;;;;6.19;70.53;101871.22;5078012;28;20083;-85
2022/01/15 01:56:28;;;;;;;17.02;10.52;;;;;;;6.23;70.94;101870.44;5077427;28;20056;-85
2022/01/15 01:58:55;;;;;;;16.38;10.88;;;;;;;6.23;70.63;101861.31;5078501;28;20155;-85
2022/01/15 02:01:23;;;;;;;16.17;10.48;;;;;;;6.20;70.57;101870.13;5079145;28;20060;-85
2022/01/15 02:03:50;;;;;;;16.75;12.30;;;;;;;6.15;71.19;101865.31;5078920;28;20049;-84
2022/01/15 02:06:21;;;;;;;18.70;12.23;;;;;;;6.18;70.91;101869.53;5082020;28;20405;-85
2022/01/15 02:08:50;;;;;;;18.83;11.88;;;;;;;6.24;70.78;101858.31;5082379;28;20056;-84
2022/01/15 02:11:20;;;;;;;17.83;12.30;;;;;;;6.23;70.58;101861.31;5082606;28;20071;-84
2022/01/15 02:13:48;;;;;;;17.48;11.07;;;;;;;6.28;70.77;101861.41;5081509;28;20059;-84
2022/01/15 02:16:16;;;;;;;19.63;11.93;;;;;;;6.33;70.78;101853.19;5082536;28;20143;-85
2022/01/15 02:18:44;;;;;;;21.35;13.50;;;;;;;6.32;70.84;101851.53;5082562;28;20056;-85
2022/01/15 02:23:58;;;;;;;16.73;10.77;;;;;;;6.32;70.73;101851.53;5088454;28;20083;-85
2022/01/15 02:26:28;;;;;;;17.33;12.23;;;;;;;6.34;70.70;101843.81;5082695;28;20490;-84
2022/01/15 02:29:03;;;;;;;21.20;13.40;;;;;;;6.33;70.50;101833.00;5082495;28;20071;-84
2022/01/15 02:31:32;;;;;;;19.00;12.95;;;;;;;6.37;70.35;101840.53;5082068;28;20063;-84
2022/01/15 02:34:04;;;;;;;19.67;12.93;;;;;;;6.33;70.10;101836.59;5082812;28;20052;-83
2022/01/15 02:36:35;;;;;;;18.63;12.45;;;;;;;6.30;70.71;101828.81;5083337;28;20055;-84
2022/01/15 02:39:04;;;;;;;18.27;11.63;;;;;;;6.35;70.52;101817.81;5081971;28;20056;-85
2022/01/15 02:41:34;;;;;;;17.92;12.10;;;;;;;6.37;70.26;101821.16;5081871;28;20052;-84
2022/01/15 02:44:03;;;;;;;19.48;12.20;;;;;;;6.38;70.76;101824.75;5082101;28;20052;-84
2022/01/15 02:48:00;;;;;;;17.00;12.30;;;;;;;6.34;70.97;101818.91;5081490;28;20059;-84
2022/01/15 02:49:26;;;;;;;19.13;12.65;;;;;;;6.39;70.68;101813.44;5082158;28;20075;-83
2022/01/15 02:51:55;;;;;;;18.15;12.43;;;;;;;6.41;70.03;101818.72;5080804;28;20049;-82
2022/01/15 02:54:22;;;;;;;18.88;12.40;;;;;;;6.39;70.57;101813.44;5081226;28;20048;-84
2022/01/15 02:56:50;;;;;;;17.80;11.45;;;;;;;6.39;70.65;101807.91;5081435;28;20389;-84
2022/01/15 02:59:24;;;;;;;18.20;11.90;;;;;;;6.42;69.97;101801.00;5081347;28;20064;-84
2022/01/15 03:01:52;;;;;;;19.92;13.38;;;;;;;6.38;70.01;101797.91;5081669;28;20063;-84
2022/01/15 03:04:20;;;;;;;15.27;11.88;;;;;;;6.34;70.69;101804.22;5080822;28;20056;-85
2022/01/15 03:06:47;;;;;;;21.02;13.52;;;;;;;6.31;70.72;101791.72;5081687;28;20369;-84
2022/01/15 03:09:16;;;;;;;19.55;12.55;;;;;;;6.29;70.47;101791.97;5081401;28;20049;-84
2022/01/15 03:11:43;;;;;;;19.52;12.40;;;;;;;6.29;70.96;101793.91;5080634;28;20415;-84
2022/01/15 03:14:12;;;;;;;18.02;12.80;;;;;;;6.38;69.78;101792.38;5081221;28;20059;-84
2022/01/15 03:16:40;;;;;;;19.00;12.40;;;;;;;6.28;70.34;101787.53;5081499;28;20508;-83
2022/01/15 03:19:08;;;;;;;19.48;13.38;;;;;;;6.28;70.45;101792.25;5081677;28;20052;-84
2022/01/15 03:21:35;;;;;;;18.98;12.68;;;;;;;6.29;70.15;101783.66;5081259;28;20072;-85
2022/01/15 03:24:04;;;;;;;21.27;12.32;;;;;;;6.26;70.32;101788.91;5080995;28;20052;-86
2022/01/15 03:26:35;;;;;;;15.57;11.20;;;;;;;6.27;70.74;101783.09;5080699;28;20067;-84
2022/01/15 03:29:02;;;;;;;17.08;11.93;;;;;;;6.19;70.69;101785.44;5080909;28;20063;-85
2022/01/15 03:31:30;;;;;;;16.73;11.70;;;;;;;6.18;70.71;101778.25;5080611;28;20044;-85
2022/01/15 03:33:57;;;;;;;16.38;10.70;;;;;;;6.24;70.55;101772.53;5080971;28;20076;-85
2022/01/15 03:36:25;;;;;;;17.85;11.93;;;;;;;6.26;70.46;101775.88;5080919;28;20052;-84
2022/01/15 03:38:52;;;;;;;17.77;10.98;;;;;;;6.32;70.82;101774.03;5080778;28;20052;-85
2022/01/15 03:41:19;;;;;;;18.25;11.93;;;;;;;6.32;70.17;101765.75;5080378;28;20507;-85
2022/01/15 03:43:51;;;;;;;16.63;11.10;;;;;;;6.33;69.96;101753.56;5079164;28;20063;-84
2022/01/15 03:46:18;;;;;;;17.27;11.52;;;;;;;6.14;70.70;101763.25;5080902;28;20417;-84
2022/01/15 03:48:47;;;;;;;14.70;10.20;;;;;;;6.23;71.01;101761.72;5080761;28;20036;-84
2022/01/15 03:51:18;;;;;;;7.88;5.60;;;;;;;6.13;70.35;101758.78;5079673;28;20147;-84
2022/01/15 03:53:48;;;;;;;6.53;5.07;;;;;;;6.05;70.09;101757.31;5080186;28;20048;-83
2022/01/15 03:56:16;;;;;;;5.53;3.70;;;;;;;6.04;70.49;101761.16;5079371;28;20052;-84
2022/01/15 03:58:43;;;;;;;4.40;3.38;;;;;;;6.01;70.10;101758.91;5079007;28;20060;-84
2022/01/15 04:01:12;;;;;;;5.10;3.70;;;;;;;5.67;70.45;101762.47;5079344;28;20501;-85
2022/01/15 04:03:39;;;;;;;4.13;2.72;;;;;;;5.77;70.13;101758.19;5080719;28;20048;-84
2022/01/15 04:06:07;;;;;;;5.05;2.90;;;;;;;5.78;69.71;101757.09;5080043;28;20056;-85
2022/01/15 04:08:34;;;;;;;4.03;3.15;;;;;;;5.68;69.55;101752.22;5079830;28;20052;-84
2022/01/15 04:11:01;;;;;;;4.03;2.90;;;;;;;5.62;69.43;101745.75;5079575;28;20486;-85
2022/01/15 04:13:29;;;;;;;4.40;2.97;;;;;;;5.45;70.32;101747.69;5079617;28;20064;-85
2022/01/15 04:15:57;;;;;;;4.00;2.95;;;;;;;5.49;70.18;101746.94;5079721;28;20075;-85
2022/01/15 04:18:29;;;;;;;4.22;3.10;;;;;;;5.31;71.04;101746.31;5078298;28;20044;-85
2022/01/15 04:20:58;;;;;;;4.45;3.35;;;;;;;5.28;70.63;101742.13;5079612;28;20075;-85
2022/01/15 04:23:25;;;;;;;4.95;3.03;;;;;;;5.27;70.76;101733.00;5079329;28;20394;-84
2022/01/15 04:25:52;;;;;;;4.82;3.72;;;;;;;5.09;71.70;101728.50;5078908;28;20044;-84
2022/01/15 04:28:20;;;;;;;5.20;3.70;;;;;;;4.98;71.63;101736.88;5079074;28;20059;-84
2022/01/15 04:30:48;;;;;;;5.03;3.55;;;;;;;5.08;71.84;101735.13;5099648;28;20048;-85
2022/01/15 04:33:16;;;;;;;5.95;4.35;;;;;;;5.01;72.12;101728.06;5100419;28;20048;-85
2022/01/15 04:35:44;;;;;;;7.68;4.55;;;;;;;5.13;71.49;101728.88;5099201;28;20052;-86
2022/01/15 04:38:13;;;;;;;5.90;4.43;;;;;;;5.04;71.90;101722.03;5095842;28;20052;-85
2022/01/15 04:40:41;;;;;;;6.78;4.38;;;;;;;4.96;71.58;101723.28;5078671;28;20058;-85
2022/01/15 04:43:08;;;;;;;5.40;4.05;;;;;;;4.96;71.52;101728.00;5078097;28;20056;-85
2022/01/15 04:45:36;;;;;;;5.85;4.35;;;;;;;4.90;71.84;101712.41;5078968;28;20052;-85
2022/01/15 04:48:04;;;;;;;6.80;4.38;;;;;;;4.89;71.86;101711.53;5080051;28;20056;-85
2022/01/15 04:50:31;;;;;;;7.32;5.20;;;;;;;4.88;71.86;101702.44;5079005;28;20067;-84
2022/01/15 04:53:00;;;;;;;7.93;4.93;;;;;;;4.74;72.68;101714.84;5078096;28;20074;-85
2022/01/15 04:55:27;;;;;;;7.07;5.30;;;;;;;4.94;71.89;101710.81;5078286;28;20059;-86
2022/01/15 04:57:55;;;;;;;6.82;5.30;;;;;;;5.02;71.25;101702.16;5079051;28;20051;-86
2022/01/15 05:00:23;;;;;;;7.90;5.40;;;;;;;4.96;72.07;101700.38;5079880;28;20409;-85
2022/01/15 05:02:50;;;;;;;7.35;5.22;;;;;;;4.92;71.83;101693.66;5079292;28;20482;-85
2022/01/15 05:05:18;;;;;;;6.57;4.90;;;;;;;5.00;71.87;101694.09;5079656;28;20049;-84
2022/01/15 05:07:45;;;;;;;5.80;4.22;;;;;;;5.06;71.71;101697.78;5079427;28;20048;-85
2022/01/15 05:10:16;;;;;;;5.80;3.92;;;;;;;5.00;71.39;101696.88;5080047;28;20067;-84
2022/01/15 05:12:46;;;;;;;5.90;4.22;;;;;;;4.92;71.89;101696.44;5080265;28;20067;-84
2022/01/15 05:15:14;;;;;;;6.00;3.90;;;;;;;4.88;71.78;101693.31;5079769;28;20053;-84
2022/01/15 05:17:43;;;;;;;6.22;4.20;;;;;;;4.80;72.12;101697.28;5078419;28;20049;-84
2022/01/15 05:20:16;;;;;;;6.63;4.45;;;;;;;4.83;72.02;101690.44;5078409;28;20052;-85
2022/01/15 05:22:46;;;;;;;5.43;3.85;;;;;;;4.67;72.71;101697.59;5078857;28;20045;-84
2022/01/15 05:25:16;;;;;;;6.30;4.43;;;;;;;4.70;72.72;101686.03;5079053;28;20059;-84
2022/01/15 05:27:44;;;;;;;5.45;4.00;;;;;;;4.74;72.67;101695.50;5078433;28;20048;-85
2022/01/15 05:30:13;;;;;;;6.63;4.55;;;;;;;4.79;72.02;101686.53;5094374;28;20155;-85
2022/01/15 05:32:41;;;;;;;7.00;4.75;;;;;;;4.83;72.41;101690.44;5098741;28;20052;-84
2022/01/15 05:35:09;;;;;;;5.85;4.38;;;;;;;4.76;72.75;101679.53;5099205;28;20059;-84
2022/01/15 05:37:38;;;;;;;5.88;4.20;;;;;;;4.85;72.34;101678.09;5097151;28;20055;-85
2022/01/15 05:40:07;;;;;;;6.80;4.60;;;;;;;4.82;72.83;101680.50;5081537;28;20052;-84
2022/01/15 05:42:36;;;;;;;8.18;5.25;;;;;;;4.94;72.72;101677.69;5083782;28;20048;-84
2022/01/15 05:45:03;;;;;;;6.63;4.93;;;;;;;4.97;72.80;101672.50;5083290;28;20064;-84
2022/01/15 05:47:31;;;;;;;7.10;5.03;;;;;;;5.07;72.51;101680.13;5083061;28;20056;-84
2022/01/15 05:49:58;;;;;;;6.47;4.70;;;;;;;5.08;72.34;101682.66;5082438;28;20053;-84
2022/01/15 05:52:25;;;;;;;6.40;4.63;;;;;;;5.15;71.93;101679.75;5081429;28;20064;-84
2022/01/15 05:54:52;;;;;;;6.35;4.97;;;;;;;5.21;71.85;101681.50;5082896;28;20127;-84
2022/01/15 05:57:20;;;;;;;10.40;6.22;;;;;;;5.27;71.64;101686.03;5083145;28;20048;-86
2022/01/15 05:59:51;;;;;;;7.72;5.55;;;;;;;5.35;71.67;101692.25;5084864;28;20056;-85
2022/01/15 06:02:19;;;;;;;8.65;5.75;;;;;;;5.20;71.87;101685.34;5083416;28;20052;-84
2022/01/15 06:04:46;;;;;;;6.93;5.05;;;;;;;5.29;71.61;101683.00;5083775;28;20044;-85
2022/01/15 06:07:14;;;;;;;8.57;5.70;;;;;;;5.29;71.23;101694.06;5085820;28;20178;-85
2022/01/15 06:09:44;;;;;;;8.40;5.78;;;;;;;5.25;71.08;101693.75;5096681;28;20052;-85
2022/01/15 06:12:11;;;;;;;8.55;5.90;;;;;;;5.26;71.39;101689.03;5082569;28;20044;-84
2022/01/15 06:14:39;;;;;;;9.40;6.45;;;;;;;5.28;70.90;101693.22;5081282;28;20509;-84
2022/01/15 06:17:08;;;;;;;6.90;5.03;;;;;;;5.12;71.95;101687.69;5090325;28;20055;-84
2022/01/15 06:19:35;;;;;;;9.43;6.38;;;;;;;5.16;71.96;101694.38;5062160;28;20056;-85
2022/01/15 06:22:03;;;;;;;7.65;5.68;;;;;;;5.16;71.48;101699.91;5061826;28;20056;-85
2022/01/15 06:24:31;;;;;;;7.40;5.53;;;;;;;5.16;71.35;101688.84;5084029;28;20524;-84
2022/01/15 06:26:58;;;;;;;8.25;5.78;;;;;;;5.09;72.07;101689.84;5102411;28;20056;-84
2022/01/15 06:29:26;;;;;;;7.80;5.10;;;;;;;5.03;71.50;101701.88;5102580;28;20048;-84
2022/01/15 06:31:54;;;;;;;7.28;5.03;;;;;;;5.07;70.92;101697.53;5102546;28;20056;-84
2022/01/15 06:34:22;;;;;;;9.38;5.72;;;;;;;4.90;71.31;101693.06;5102481;28;20052;-84
2022/01/15 06:36:50;;;;;;;11.70;6.95;;;;;;;4.74;71.59;101698.28;5102538;28;20063;-86
2022/01/15 06:39:17;;;;;;;10.05;6.40;;;;;;;4.83;71.41;101694.06;5100890;28;20044;-84
2022/01/15 06:41:44;;;;;;;9.32;6.28;;;;;;;4.81;71.32;101693.47;5100903;28;20048;-83
2022/01/15 06:44:12;;;;;;;9.15;6.38;;;;;;;4.74;71.15;101702.97;5100703;28;20048;-85
2022/01/15 06:46:39;;;;;;;11.20;7.18;;;;;;;4.62;71.73;101702.97;5098675;28;20059;-85
2022/01/15 06:49:06;;;;;;;11.48;8.10;;;;;;;4.63;71.49;101700.00;5101408;28;20056;-83
2022/01/15 06:51:35;;;;;;;10.18;7.22;;;;;;;4.64;71.79;101698.06;5100218;28;20480;-84
2022/01/15 06:54:03;;;;;;;10.55;7.18;;;;;;;4.59;71.92;101700.72;5100134;28;20048;-85
2022/01/15 06:56:30;;;;;;;11.90;7.32;;;;;;;4.43;72.71;101702.31;5096188;28;20079;-85
2022/01/15 06:58:57;;;;;;;12.95;7.93;;;;;;;4.44;72.17;101704.84;5100547;28;20055;-85
2022/01/15 07:01:25;;;;;;;13.05;7.53;;;;;;;4.43;72.61;101702.31;5100473;28;20044;-85
2022/01/15 07:03:52;;;;;;;13.15;7.93;;;;;;;4.44;72.77;101695.72;5100569;28;20055;-83
2022/01/15 07:06:19;;;;;;;15.65;8.88;;;;;;;4.43;72.40;101691.28;5100023;28;20059;-84
2022/01/15 07:08:48;;;;;;;12.95;7.28;;;;;;;4.40;72.67;101691.78;5099018;28;20064;-84
2022/01/15 07:11:15;;;;;;;13.50;8.32;;;;;;;4.33;72.85;101694.69;5093240;28;20047;-84
2022/01/15 07:13:43;;;;;;;13.80;8.15;;;;;;;4.23;73.46;101694.44;5081446;28;20516;-83
2022/01/15 07:16:10;;;;;;;11.20;7.72;;;;;;;4.19;73.96;101688.56;5079511;28;20390;-83
2022/01/15 07:18:37;;;;;;;11.45;7.57;;;;;;;4.27;74.12;101690.13;5079333;28;20045;-83
2022/01/15 07:21:06;;;;;;;14.07;8.43;;;;;;;4.26;73.56;101685.69;5078885;28;20477;-85
2022/01/15 07:23:33;;;;;;;14.70;8.93;;;;;;;4.32;73.69;101690.22;5084927;28;20045;-84
2022/01/15 07:26:02;;;;;;;13.60;8.43;;;;;;;4.39;73.35;101685.44;5091125;28;20500;-84
2022/01/15 07:28:30;;;;;;;13.40;8.35;;;;;;;4.38;73.79;101686.50;5080390;28;20064;-84
2022/01/15 07:30:58;;;;;;;17.52;9.95;;;;;;;4.34;74.09;101685.31;5088574;28;20075;-84
2022/01/15 07:33:25;;;;;;;17.73;9.18;;;;;;;4.39;73.54;101684.56;5076715;28;20041;-84
2022/01/15 07:35:54;;;;;;;17.42;9.05;;;;;;;4.48;73.58;101677.59;5073449;28;20179;-83
2022/01/15 07:38:22;;;;;;;15.63;8.27;;;;;;;4.52;73.68;101683.50;5075092;28;20044;-84
2022/01/15 07:40:52;;;;;;;17.10;8.35;;;;;;;4.57;73.41;101686.34;5077295;28;20055;-84
2022/01/15 07:43:21;;;;;;;15.10;8.50;;;;;;;4.47;73.62;101681.44;5076684;28;20049;-84
2022/01/15 07:45:48;;;;;;;28.23;9.82;;;;;;;4.48;73.43;101677.59;5076986;28;20071;-85
2022/01/15 07:48:15;;;;;;;20.55;8.70;;;;;;;4.47;73.08;101678.69;5077169;28;20040;-84
2022/01/15 07:50:46;;;;;;;13.45;7.78;;;;;;;4.52;73.21;101662.25;5077815;28;20059;-84
2022/01/15 07:53:14;;;;;;;13.93;8.18;;;;;;;4.58;72.69;101654.91;5077448;28;20067;-83
2022/01/15 07:55:41;;;;;;;14.35;9.27;;;;;;;4.62;72.94;101656.06;5077830;28;20053;-85
2022/01/15 07:58:10;;;;;;;14.15;8.88;;;;;;;4.67;73.14;101657.03;5078826;28;20056;-85
2022/01/15 08:00:38;;;;;;;23.85;10.32;;;;;;;4.58;72.87;101665.97;5077589;28;20055;-85
2022/01/15 08:03:07;;;;;;;19.75;9.85;;;;;;;4.63;72.96;101660.53;5078011;28;20056;-85
2022/01/15 08:05:34;;;;;;;15.20;9.20;;;;;;;4.76;71.92;101660.22;5078386;28;20052;-84
2022/01/15 08:08:02;;;;;;;11.60;7.50;;;;;;;4.73;71.58;101655.22;5078181;28;20056;-84
2022/01/15 08:10:30;;;;;;;10.52;7.28;;;;;;;4.67;71.42;101653.44;5074243;28;20052;-80
2022/01/15 08:12:59;;;;;;;18.05;6.78;;;;;;;4.66;71.45;101652.59;5072464;28;20053;-79
2022/01/15 08:15:27;;;;;;;11.02;6.43;;;;;;;4.77;71.07;101648.13;5074598;28;20517;-80
2022/01/15 08:17:57;;;;;;;10.38;6.78;;;;;;;4.84;71.30;101653.47;5076899;28;20064;-84
2022/01/15 08:20:24;;;;;;;10.13;6.75;;;;;;;4.88;71.06;101651.91;5082853;28;20048;-84
2022/01/15 08:22:52;;;;;;;12.98;6.80;;;;;;;4.97;71.08;101650.41;5078570;28;20052;-82
2022/01/15 08:25:22;;;;;;;11.00;6.15;;;;;;;5.04;71.07;101651.09;5075266;28;20048;-82
2022/01/15 08:27:52;;;;;;;10.20;7.13;;;;;;;5.14;70.55;101652.38;5077152;28;20060;-85
2022/01/15 08:30:20;;;;;;;9.90;6.20;;;;;;;5.19;71.26;101644.19;5097586;28;20052;-85
2022/01/15 08:32:48;;;;;;;12.77;7.10;;;;;;;5.26;70.76;101642.91;5100093;28;20060;-85
2022/01/15 08:35:19;;;;;;;13.18;6.85;;;;;;;5.26;70.74;101651.19;5099419;28;20063;-85
2022/01/15 08:37:46;;;;;;;9.32;5.93;;;;;;;5.33;70.41;101656.56;5102321;28;20054;-83
2022/01/15 08:40:15;;;;;;;9.10;6.65;;;;;;;5.41;69.76;101653.38;5098955;28;20044;-84
2022/01/15 08:42:43;;;;;;;12.43;7.30;;;;;;;5.48;69.72;101653.22;5097628;28;20056;-85
2022/01/15 08:45:13;;;;;;;8.88;6.10;;;;;;;5.48;69.80;101653.22;5097728;28;20059;-85
2022/01/15 08:47:40;;;;;;;14.20;7.50;;;;;;;5.51;69.76;101647.19;5099900;28;20465;-84
2022/01/15 08:50:10;;;;;;;11.55;7.53;;;;;;;5.59;69.41;101641.25;5100901;28;20051;-85
2022/01/15 08:52:40;;;;;;;10.68;7.28;;;;;;;5.60;69.77;101645.69;5101549;28;20051;-87
2022/01/15 08:55:08;;;;;;;11.63;7.20;;;;;;;5.68;68.97;101652.72;5102168;28;20416;-86
2022/01/15 08:57:36;;;;;;;34.05;10.50;;;;;;;5.36;69.45;101650.56;5102760;28;20056;-86
2022/01/15 09:00:11;;;;;;;11.68;8.35;;;;;;;5.59;69.35;101652.31;5104218;28;20048;-86
2022/01/15 09:02:39;;;;;;;14.40;9.20;;;;;;;5.60;68.66;101645.69;5103751;28;20060;-85
2022/01/15 09:05:06;;;;;;;13.45;8.40;;;;;;;5.64;68.21;101646.84;5104571;28;20044;-86
2022/01/15 09:07:34;;;;;;;16.05;7.90;;;;;;;5.59;69.04;101641.25;5104622;28;20428;-87
2022/01/15 09:10:04;;;;;;;11.05;8.18;;;;;;;5.68;68.60;101648.03;5104251;28;20059;-86
2022/01/15 09:12:31;;;;;;;12.52;8.63;;;;;;;5.57;69.09;101653.66;5104593;28;20048;-86
2022/01/15 09:14:59;;;;;;;10.98;8.18;;;;;;;5.57;69.18;101640.66;5108924;28;20062;-86
2022/01/15 09:17:26;;;;;;;11.95;8.60;;;;;;;5.65;69.12;101648.53;5109565;28;20055;-86
2022/01/15 09:19:54;;;;;;;13.90;8.93;;;;;;;5.68;68.70;101636.97;5103552;28;20044;-81
2022/01/15 09:22:23;;;;;;;33.85;11.20;;;;;;;5.72;68.63;101644.78;5099782;28;20048;-82
2022/01/15 09:24:50;;;;;;;13.88;8.90;;;;;;;5.64;68.44;101643.25;5098712;28;20044;-84
2022/01/15 09:30:12;;;;;;;11.80;9.23;;;;;;;5.70;68.85;101636.72;5099709;28;20059;-85
2022/01/15 09:32:40;;;;;;;12.73;8.57;;;;;;;5.78;68.55;101629.94;5096582;28;20044;-84
2022/01/15 09:35:09;;;;;;;14.13;9.25;;;;;;;5.80;68.17;101631.34;5098976;28;20048;-86
2022/01/15 09:37:36;;;;;;;13.43;8.40;;;;;;;5.84;68.32;101626.16;5079429;28;20049;-85
2022/01/15 09:40:05;;;;;;;12.57;8.55;;;;;;;5.88;68.09;101622.63;5090743;28;20075;-84
2022/01/15 09:42:34;;;;;;;13.02;9.18;;;;;;;5.93;68.26;101623.78;5086237;28;20044;-85
2022/01/15 09:45:04;;;;;;;11.43;7.82;;;;;;;6.04;67.69;101618.16;5100573;28;20056;-85
2022/01/15 09:47:33;;;;;;;9.80;7.20;;;;;;;6.07;67.07;101623.19;5086159;28;20062;-82
2022/01/15 09:50:02;;;;;;;8.13;5.97;;;;;;;5.86;68.14;101626.75;5087913;28;20048;-82
2022/01/15 09:52:32;;;;;;;7.80;5.60;;;;;;;5.97;67.11;101622.22;5079977;28;20068;-85
2022/01/15 09:55:00;;;;;;;8.13;5.93;;;;;;;6.07;66.52;101617.66;5079146;28;20059;-86
2022/01/15 09:57:27;;;;;;;8.10;6.20;;;;;;;6.04;66.77;101618.16;5061374;28;20057;-85
2022/01/15 09:59:56;;;;;;;9.40;5.95;;;;;;;6.01;67.30;101615.91;5078643;28;20082;-86
2022/01/15 10:02:24;;;;;;;9.30;6.30;;;;;;;6.06;67.03;101607.66;5078737;28;20072;-85
2022/01/15 10:04:51;;;;;;;9.45;7.63;;;;;;;6.08;67.45;101607.44;5078549;28;20490;-86
2022/01/15 10:07:22;;;;;;;9.10;7.07;;;;;;;6.13;66.50;101614.94;5087483;28;20468;-85
2022/01/15 10:09:50;;;;;;;8.57;6.63;;;;;;;6.06;67.20;101610.44;5080514;28;20076;-84
2022/01/15 10:12:28;;;;;;;10.25;7.03;;;;;;;6.01;67.01;101604.84;5061341;28;20052;-84
2022/01/15 10:15:01;;;;;;;11.02;5.88;;;;;;;6.10;67.06;101603.31;5075990;28;20048;-85
2022/01/15 10:17:33;;;;;;;9.13;6.63;;;;;;;6.14;67.39;101600.03;5082942;28;20057;-87
2022/01/15 10:20:01;;;;;;;9.60;7.15;;;;;;;6.27;67.05;101602.41;5071216;28;20056;-88
2022/01/15 10:22:32;;;;;;;8.30;6.43;;;;;;;6.35;66.94;101599.19;5080285;28;20048;-88
2022/01/15 10:25:03;;;;;;;8.45;6.43;;;;;;;6.39;66.59;101597.59;5079949;28;20067;-85
2022/01/15 10:27:32;;;;;;;8.68;6.10;;;;;;;6.52;66.30;101593.56;5099469;28;20066;-84
2022/01/15 10:30:08;;;;;;;7.72;5.93;;;;;;;6.25;66.36;101588.81;5093849;28;20501;-85
2022/01/15 10:32:39;;;;;;;7.85;5.85;;;;;;;6.38;66.80;101589.53;5104098;28;20052;-84
2022/01/15 10:35:12;;;;;;;8.20;6.28;;;;;;;6.33;66.36;101587.53;5100948;28;20055;-85
2022/01/15 10:37:49;;;;;;;7.03;5.72;;;;;;;6.47;66.15;101588.81;5100914;28;20079;-84
2022/01/15 10:40:16;;;;;;;8.25;5.70;;;;;;;6.58;66.03;101588.94;5100118;28;20048;-85
2022/01/15 10:42:53;;;;;;;7.65;5.85;;;;;;;6.68;65.39;101589.88;5100540;28;20436;-85
2022/01/15 10:45:24;;;;;;;7.28;5.38;;;;;;;6.71;65.66;101582.97;5101515;28;20059;-83
2022/01/15 10:47:55;;;;;;;7.20;5.22;;;;;;;6.56;65.68;101585.59;5100544;28;20074;-84
2022/01/15 10:50:25;;;;;;;6.97;5.13;;;;;;;6.68;65.54;101576.03;5101344;28;20512;-83
2022/01/15 10:52:56;;;;;;;7.65;5.80;;;;;;;6.67;65.97;101576.28;5100412;28;20055;-83
2022/01/15 10:55:29;;;;;;;8.02;6.30;;;;;;;6.94;65.05;101569.91;5099099;28;20052;-85
2022/01/15 10:57:59;;;;;;;7.30;5.13;;;;;;;6.95;64.96;101561.34;5100458;28;20047;-84
2022/01/15 11:00:30;;;;;;;8.75;5.88;;;;;;;7.16;64.40;101555.97;5099300;28;20059;-85
2022/01/15 11:03:09;;;;;;;7.55;5.85;;;;;;;7.19;64.09;101560.97;5098763;28;20052;-85
2022/01/15 11:05:38;;;;;;;7.72;5.80;;;;;;;7.19;64.48;101561.81;5100695;28;20051;-86
2022/01/15 11:08:19;;;;;;;8.75;6.20;;;;;;;6.98;64.63;101559.97;5099983;28;20056;-87
2022/01/15 11:10:55;;;;;;;6.70;5.45;;;;;;;7.15;64.29;101548.75;5099026;28;20130;-87
2022/01/15 11:13:25;;;;;;;7.07;5.40;;;;;;;7.36;64.71;101546.97;5099702;28;20406;-88
2022/01/15 11:15:56;;;;;;;9.27;6.28;;;;;;;7.52;63.95;101548.75;5099534;28;20056;-87
2022/01/15 11:18:27;;;;;;;8.45;6.80;;;;;;;7.56;63.71;101543.47;5097925;28;20055;-87
2022/01/15 11:20:57;;;;;;;9.40;6.97;;;;;;;7.65;63.69;101537.19;5100212;28;20048;-88
2022/01/15 11:23:26;;;;;;;8.25;6.28;;;;;;;7.70;63.53;101542.75;5102264;28;20052;-85
2022/01/15 11:25:55;;;;;;;9.48;6.57;;;;;;;7.67;62.57;101534.97;5106638;28;20062;-85
2022/01/15 11:28:24;;;;;;;8.98;6.28;;;;;;;7.69;62.86;101538.31;5111124;28;20060;-84
2022/01/15 11:30:58;;;;;;;7.60;6.57;;;;;;;7.78;62.58;101529.47;5112300;28;20055;-85
2022/01/15 11:33:31;;;;;;;9.18;6.80;;;;;;;7.88;62.35;101524.81;5111875;28;20036;-85
2022/01/15 11:35:59;;;;;;;7.72;6.10;;;;;;;7.88;62.13;101524.00;5111873;28;20055;-85
2022/01/15 11:38:46;;;;;;;8.18;6.70;;;;;;;7.91;61.99;101517.88;5111626;28;20048;-85
2022/01/15 11:41:43;;;;;;;7.60;6.38;;;;;;;8.00;61.78;101516.28;5105496;28;20056;-86
2022/01/15 11:44:14;;;;;;;9.25;7.40;;;;;;;8.06;61.58;101519.88;5103620;28;20048;-86
2022/01/15 11:46:49;;;;;;;7.35;5.60;;;;;;;8.04;61.83;101520.19;5103536;28;20052;-85
2022/01/15 11:49:36;;;;;;;8.77;6.80;;;;;;;8.02;62.18;101514.06;5103476;28;20058;-86
2022/01/15 11:52:42;;;;;;;7.82;6.35;;;;;;;8.13;61.83;101504.66;5103719;28;20058;-86
2022/01/15 11:55:18;;;;;;;8.50;6.32;;;;;;;7.99;62.01;101497.94;5109933;28;20047;-85